createdAt,value
2022-11-14T00:00:59.332Z,12.18
2022-11-14T00:03:54.125Z,13.10
2022-11-14T00:06:44.166Z,13.13
2022-11-14T00:09:34.880Z,12.80
2022-11-14T00:12:25.323Z,13.02
2022-11-14T00:15:17.194Z,11.95
2022-11-14T00:18:07.556Z,12.20
2022-11-14T00:21:00.934Z,12.90
2022-11-14T00:23:52.066Z,12.45
2022-11-14T00:26:42.251Z,12.35
2022-11-14T00:29:34.029Z,12.02
2022-11-14T00:32:24.514Z,12.20
2022-11-14T00:35:15.425Z,12.13
2022-11-14T00:38:09.311Z,11.55
2022-11-14T00:40:58.759Z,12.40
2022-11-14T00:43:48.569Z,11.95
2022-11-14T00:46:38.739Z,12.43
2022-11-14T00:49:28.174Z,11.50
2022-11-14T00:52:17.685Z,11.93
2022-11-14T00:55:11.459Z,10.93
2022-11-14T00:58:00.835Z,11.48
2022-11-14T01:00:50.438Z,11.38
2022-11-14T01:03:39.673Z,11.63
2022-11-14T01:06:28.900Z,11.60
2022-11-14T01:09:18.400Z,11.05
2022-11-14T01:12:10.826Z,10.80
2022-11-14T01:15:00.321Z,11.25
2022-11-14T01:17:50.144Z,11.10
2022-11-14T01:20:42.475Z,11.30
2022-11-14T01:23:32.364Z,10.82
2022-11-14T01:26:21.571Z,11.05
2022-11-14T01:29:13.543Z,10.52
2022-11-14T01:32:02.998Z,10.65
2022-11-14T01:34:52.431Z,11.50
2022-11-14T01:37:41.974Z,10.73
2022-11-14T01:40:32.053Z,11.05
2022-11-14T01:43:33.894Z,10.95
2022-11-14T01:46:29.428Z,12.00
2022-11-14T01:49:23.835Z,9.90
2022-11-14T01:52:16.181Z,10.38
2022-11-14T01:55:09.088Z,11.05
2022-11-14T01:58:00.024Z,10.77
2022-11-14T02:00:49.426Z,10.95
2022-11-14T02:03:44.726Z,11.15
2022-11-14T02:06:35.608Z,11.27
2022-11-14T02:09:25.082Z,11.85
2022-11-14T02:12:18.003Z,11.20
2022-11-14T02:15:08.906Z,11.02
2022-11-14T02:17:58.817Z,11.32
2022-11-14T02:20:50.994Z,11.77
2022-11-14T02:23:40.421Z,11.15
2022-11-14T02:26:34.312Z,11.10
2022-11-14T02:29:25.868Z,10.63
2022-11-14T02:32:15.175Z,10.93
2022-11-14T02:35:05.209Z,11.27
2022-11-14T02:37:57.494Z,11.00
2022-11-14T02:40:47.442Z,10.90
2022-11-14T02:43:37.215Z,10.32
2022-11-14T02:46:26.452Z,10.40
2022-11-14T02:49:15.710Z,10.07
2022-11-14T02:52:05.113Z,10.85
2022-11-14T02:54:57.414Z,10.85
2022-11-14T02:57:46.833Z,10.68
2022-11-14T03:00:38.551Z,10.75
2022-11-14T03:03:37.907Z,10.02
2022-11-14T03:06:27.927Z,10.43
2022-11-14T03:09:18.424Z,11.15
2022-11-14T03:12:11.104Z,10.50
2022-11-14T03:15:00.333Z,10.93
2022-11-14T03:17:49.747Z,11.05
2022-11-14T03:20:39.086Z,10.95
2022-11-14T03:23:28.575Z,10.15
2022-11-14T03:26:19.191Z,11.18
2022-11-14T03:29:11.547Z,11.40
2022-11-14T03:32:00.856Z,10.73
2022-11-14T03:34:50.251Z,10.52
2022-11-14T03:37:39.651Z,11.52
2022-11-14T03:40:29.324Z,11.52
2022-11-14T03:43:18.701Z,10.63
2022-11-14T03:46:11.339Z,10.85
2022-11-14T03:49:00.546Z,11.07
2022-11-14T03:51:50.888Z,10.70
2022-11-14T03:54:40.333Z,11.00
2022-11-14T03:57:29.530Z,11.13
2022-11-14T04:00:20.685Z,11.45
2022-11-14T04:03:12.479Z,10.07
2022-11-14T04:06:01.964Z,10.18
2022-11-14T04:08:52.060Z,11.20
2022-11-14T04:11:41.863Z,11.20
2022-11-14T04:14:31.462Z,9.65
2022-11-14T04:17:20.802Z,10.02
2022-11-14T04:20:14.343Z,10.23
2022-11-14T04:23:03.634Z,10.75
2022-11-14T04:25:53.020Z,9.98
2022-11-14T04:28:42.754Z,10.27
2022-11-14T04:31:32.170Z,9.85
2022-11-14T04:34:21.611Z,10.43
2022-11-14T04:37:13.813Z,9.90
2022-11-14T04:40:03.491Z,10.05
2022-11-14T04:42:52.727Z,9.50
2022-11-14T04:45:42.107Z,9.38
2022-11-14T04:48:31.452Z,9.82
2022-11-14T04:51:21.139Z,9.15
2022-11-14T04:54:13.517Z,10.40
2022-11-14T04:57:02.794Z,9.40
2022-11-14T04:59:52.313Z,9.52
2022-11-14T05:02:41.637Z,9.60
2022-11-14T05:05:30.968Z,9.65
2022-11-14T05:08:20.631Z,10.00
2022-11-14T05:11:17.297Z,9.40
2022-11-14T05:14:06.831Z,8.95
2022-11-14T05:16:56.884Z,9.00
2022-11-14T05:19:46.214Z,9.50
2022-11-14T05:22:35.605Z,9.52
2022-11-14T05:25:24.996Z,8.90
2022-11-14T05:28:17.018Z,9.23
2022-11-14T05:31:08.027Z,8.93
2022-11-14T05:33:57.620Z,9.20
2022-11-14T05:36:47.419Z,8.90
2022-11-14T05:39:36.765Z,9.45
2022-11-14T05:42:26.525Z,8.80
2022-11-14T05:45:18.614Z,9.15
2022-11-14T05:48:09.128Z,8.10
2022-11-14T05:50:58.994Z,8.35
2022-11-14T05:53:48.396Z,8.80
2022-11-14T05:56:37.860Z,8.70
2022-11-14T05:59:27.740Z,8.82
2022-11-14T06:02:20.342Z,8.88
2022-11-14T06:05:10.066Z,8.50
2022-11-14T06:08:00.520Z,8.73
2022-11-14T06:10:50.034Z,9.20
2022-11-14T06:13:40.107Z,8.82
2022-11-14T06:16:29.489Z,8.70
2022-11-14T06:19:22.301Z,9.43
2022-11-14T06:22:11.522Z,8.40
2022-11-14T06:25:00.653Z,8.15
2022-11-14T06:27:50.200Z,8.25
2022-11-14T06:30:41.624Z,7.85
2022-11-14T06:33:32.096Z,8.63
2022-11-14T06:36:24.752Z,8.18
2022-11-14T06:39:14.111Z,8.15
2022-11-14T06:42:03.599Z,8.50
2022-11-14T06:44:52.932Z,8.02
2022-11-14T06:47:42.241Z,8.55
2022-11-14T06:50:31.696Z,8.18
2022-11-14T06:53:24.817Z,7.72
2022-11-14T06:56:15.761Z,8.57
2022-11-14T06:59:05.187Z,9.43
2022-11-14T07:01:55.101Z,8.48
2022-11-14T07:04:45.005Z,7.70
2022-11-14T07:07:34.557Z,8.15
2022-11-14T07:10:26.335Z,7.95
2022-11-14T07:13:16.164Z,8.30
2022-11-14T07:16:06.342Z,7.80
2022-11-14T07:18:55.631Z,8.10
2022-11-14T07:21:45.118Z,8.07
2022-11-14T07:24:35.404Z,7.47
2022-11-14T07:27:27.402Z,7.97
2022-11-14T07:30:18.648Z,9.50
2022-11-14T07:33:08.059Z,12.68
2022-11-14T07:35:57.711Z,9.65
2022-11-14T07:38:47.107Z,7.90
2022-11-14T07:41:36.442Z,8.07
2022-11-14T07:44:28.922Z,9.65
2022-11-14T07:47:18.315Z,7.97
2022-11-14T07:50:08.655Z,8.38
2022-11-14T07:52:59.157Z,8.23
2022-11-14T07:55:48.893Z,8.77
2022-11-14T07:58:39.063Z,9.13
2022-11-14T08:01:31.441Z,26.05
2022-11-14T08:04:20.999Z,15.98
2022-11-14T08:07:10.686Z,25.35
2022-11-14T08:09:59.931Z,9.43
2022-11-14T08:13:04.644Z,7.57
2022-11-14T08:16:00.346Z,13.13
2022-11-14T08:18:52.680Z,17.52
2022-11-14T08:21:42.065Z,22.95
2022-11-14T08:24:31.620Z,17.10
2022-11-14T08:27:22.075Z,14.57
2022-11-14T08:30:13.847Z,9.30
2022-11-14T08:33:06.509Z,9.43
2022-11-14T08:35:59.124Z,9.60
2022-11-14T08:38:51.401Z,9.90
2022-11-14T08:41:41.390Z,10.43
2022-11-14T08:44:31.502Z,8.95
2022-11-14T08:47:21.349Z,8.93
2022-11-14T08:50:11.629Z,8.02
2022-11-14T08:53:06.910Z,7.95
2022-11-14T08:55:56.742Z,7.82
2022-11-14T08:58:46.297Z,8.48
2022-11-14T09:01:36.435Z,8.10
2022-11-14T09:04:26.097Z,9.00
2022-11-14T09:07:15.806Z,8.70
2022-11-14T09:10:09.627Z,8.85
2022-11-14T09:13:00.033Z,9.63
2022-11-14T09:16:01.462Z,8.68
2022-11-14T09:18:51.463Z,7.88
2022-11-14T09:21:41.297Z,8.80
2022-11-14T09:24:31.238Z,9.35
2022-11-14T09:27:23.924Z,8.45
2022-11-14T09:30:14.931Z,9.88
2022-11-14T09:33:10.228Z,9.15
2022-11-14T09:36:01.989Z,9.27
2022-11-14T09:38:51.429Z,9.20
2022-11-14T09:41:53.556Z,8.52
2022-11-14T09:44:56.931Z,8.85
2022-11-14T09:47:49.913Z,9.30
2022-11-14T09:50:43.867Z,9.63
2022-11-14T09:53:37.266Z,9.82
2022-11-14T09:56:28.571Z,8.63
2022-11-14T09:59:18.156Z,7.85
2022-11-14T10:02:33.765Z,8.15
2022-11-14T10:05:46.133Z,10.15
2022-11-14T10:08:53.838Z,11.15
2022-11-14T10:11:50.583Z,8.97
2022-11-14T10:15:00.962Z,9.75
2022-11-14T10:18:13.798Z,7.85
2022-11-14T10:21:12.533Z,7.65
2022-11-14T10:24:08.569Z,8.18
2022-11-14T10:27:05.117Z,9.10
2022-11-14T10:30:12.124Z,9.68
2022-11-14T10:33:16.355Z,8.82
2022-11-14T10:36:14.533Z,9.35
2022-11-14T10:39:12.480Z,8.98
2022-11-14T10:42:11.448Z,10.40
2022-11-14T10:45:05.597Z,10.30
2022-11-14T10:47:59.759Z,8.65
2022-11-14T10:50:58.776Z,7.93
2022-11-14T10:53:55.173Z,8.38
2022-11-14T10:56:50.692Z,7.53
2022-11-14T10:59:41.179Z,7.63
2022-11-14T11:02:54.037Z,8.13
2022-11-14T11:06:00.192Z,8.23
2022-11-14T11:09:02.356Z,8.35
2022-11-14T11:12:01.856Z,9.68
2022-11-14T11:14:53.605Z,8.93
2022-11-14T11:17:57.006Z,7.85
2022-11-14T11:20:46.248Z,7.25
2022-11-14T11:23:38.890Z,6.72
2022-11-14T11:26:30.507Z,7.28
2022-11-14T11:29:21.125Z,6.93
2022-11-14T11:32:12.134Z,7.63
2022-11-14T11:35:05.589Z,7.45
2022-11-14T11:38:00.391Z,7.70
2022-11-14T11:40:56.147Z,7.20
2022-11-14T11:43:55.515Z,6.50
2022-11-14T11:46:51.489Z,6.95
2022-11-14T11:49:52.989Z,6.50
2022-11-14T11:52:48.724Z,6.00
2022-11-14T11:55:44.768Z,5.78
2022-11-14T11:58:44.591Z,5.32
2022-11-14T12:01:33.866Z,5.57
2022-11-14T12:04:23.417Z,5.72
2022-11-14T12:07:17.630Z,6.18
2022-11-14T12:10:16.418Z,6.82
2022-11-14T12:13:25.855Z,6.15
2022-11-14T12:16:39.719Z,5.30
2022-11-14T12:19:56.211Z,4.97
2022-11-14T12:23:07.647Z,4.72
2022-11-14T12:26:11.933Z,5.05
2022-11-14T12:29:21.205Z,5.82
2022-11-14T12:32:22.198Z,4.50
2022-11-14T12:35:20.694Z,3.58
2022-11-14T12:38:20.063Z,3.15
2022-11-14T12:41:10.491Z,2.63
2022-11-14T12:44:20.945Z,2.58
2022-11-14T12:47:24.900Z,2.80
2022-11-14T12:50:45.238Z,2.40
2022-11-14T12:53:45.031Z,2.30
2022-11-14T12:57:04.263Z,2.60
2022-11-14T13:00:01.517Z,2.17
2022-11-14T13:03:17.365Z,2.20
2022-11-14T13:06:12.228Z,1.77
2022-11-14T13:09:28.435Z,1.80
2022-11-14T13:12:44.914Z,1.50
2022-11-14T13:15:49.720Z,1.05
2022-11-14T13:19:06.941Z,4.22
2022-11-14T13:22:22.312Z,1.65
2022-11-14T13:25:23.914Z,0.75
2022-11-14T13:28:43.201Z,1.60
2022-11-14T13:31:48.167Z,1.50
2022-11-14T13:34:53.277Z,1.38
2022-11-14T13:38:03.690Z,0.82
2022-11-14T13:41:03.298Z,0.60
2022-11-14T13:44:19.307Z,0.70
2022-11-14T13:47:40.850Z,0.70
2022-11-14T13:50:36.980Z,0.57
2022-11-14T13:53:29.647Z,0.80
2022-11-14T13:56:32.748Z,1.20
2022-11-14T13:59:50.622Z,0.60
2022-11-14T14:03:12.427Z,0.63
2022-11-14T14:06:18.364Z,1.17
2022-11-14T14:09:19.503Z,0.63
2022-11-14T14:12:45.498Z,0.40
2022-11-14T14:15:40.457Z,0.60
2022-11-14T14:18:43.018Z,6.65
2022-11-14T14:21:45.875Z,6.25
2022-11-14T14:24:49.868Z,3.53
2022-11-14T14:27:48.299Z,1.02
2022-11-14T14:30:38.278Z,1.00
2022-11-14T14:33:28.051Z,1.40
2022-11-14T14:36:22.805Z,3.08
2022-11-14T14:39:23.315Z,2.72
2022-11-14T14:42:15.533Z,1.20
2022-11-14T14:45:07.016Z,2.22
2022-11-14T14:48:04.884Z,1.50
2022-11-14T14:50:55.920Z,1.58
2022-11-14T14:53:55.316Z,1.55
2022-11-14T14:56:57.316Z,2.38
2022-11-14T14:59:46.796Z,1.70
2022-11-14T15:02:36.417Z,3.92
2022-11-14T15:05:27.476Z,5.60
2022-11-14T15:08:19.969Z,5.22
2022-11-14T15:11:10.866Z,2.03
2022-11-14T15:14:03.927Z,1.50
2022-11-14T15:16:56.059Z,2.67
2022-11-14T15:19:48.005Z,1.50
2022-11-14T15:22:39.532Z,2.03
2022-11-14T15:25:29.284Z,2.17
2022-11-14T15:28:22.677Z,1.50
2022-11-14T15:31:22.192Z,1.70
2022-11-14T15:34:26.915Z,2.33
2022-11-14T15:37:25.233Z,2.40
2022-11-14T15:43:38.498Z,0.70
2022-11-14T15:46:43.751Z,2.47
2022-11-14T15:49:33.579Z,1.35
2022-11-14T15:52:25.933Z,0.90
2022-11-14T15:55:19.351Z,2.05
2022-11-14T15:58:39.782Z,1.95
2022-11-14T16:01:27.430Z,0.98
2022-11-14T16:04:22.247Z,0.63
2022-11-14T16:07:15.665Z,1.33
2022-11-14T16:10:05.132Z,1.55
2022-11-14T16:12:54.343Z,1.23
2022-11-14T16:15:43.935Z,1.02
2022-11-14T16:18:33.273Z,1.60
2022-11-14T16:21:25.400Z,0.90
2022-11-14T16:24:19.420Z,1.00
2022-11-14T16:27:08.854Z,1.65
2022-11-14T16:29:58.477Z,0.98
2022-11-14T16:32:49.735Z,1.33
2022-11-14T16:35:39.143Z,1.50
2022-11-14T16:38:31.142Z,1.67
2022-11-14T16:41:21.435Z,2.95
2022-11-14T16:44:17.550Z,2.50
2022-11-14T16:47:07.242Z,4.80
2022-11-14T16:49:57.269Z,4.03
2022-11-14T16:52:46.392Z,4.38
2022-11-14T16:55:38.388Z,3.97
2022-11-14T16:58:27.669Z,4.55
2022-11-14T17:01:21.220Z,4.30
2022-11-14T17:04:11.110Z,4.55
2022-11-14T17:07:00.457Z,5.20
2022-11-14T17:09:50.546Z,5.82
2022-11-14T17:12:42.926Z,9.40
2022-11-14T17:15:32.092Z,8.80
2022-11-14T17:18:21.779Z,8.15
2022-11-14T17:21:13.806Z,8.27
2022-11-14T17:24:05.708Z,5.10
2022-11-14T17:26:55.753Z,4.80
2022-11-14T17:29:48.881Z,5.68
2022-11-14T17:32:38.788Z,6.28
2022-11-14T17:35:28.694Z,5.22
2022-11-14T17:38:17.994Z,4.20
2022-11-14T17:41:08.915Z,4.32
2022-11-14T17:45:58.008Z,8.85
2022-11-14T17:48:48.078Z,7.50
2022-11-14T17:51:37.665Z,6.93
2022-11-14T17:54:27.444Z,5.47
2022-11-14T17:57:17.747Z,5.80
2022-11-14T18:00:08.944Z,5.55
2022-11-14T18:03:01.241Z,5.22
2022-11-14T18:05:51.559Z,6.07
2022-11-14T18:08:41.079Z,5.82
2022-11-14T18:11:30.860Z,5.18
2022-11-14T18:14:20.776Z,6.35
2022-11-14T18:17:13.387Z,5.47
2022-11-14T18:20:06.090Z,5.38
2022-11-14T18:22:56.112Z,5.93
2022-11-14T18:25:46.030Z,5.82
2022-11-14T18:28:35.632Z,5.97
2022-11-14T18:31:25.252Z,7.43
2022-11-14T18:34:14.726Z,8.45
2022-11-14T18:37:07.956Z,12.20
2022-11-14T18:39:58.446Z,12.60
2022-11-14T18:42:47.851Z,13.60
2022-11-14T18:45:38.740Z,12.85
2022-11-14T18:48:29.002Z,13.60
2022-11-14T18:51:20.384Z,13.23
2022-11-14T18:54:14.099Z,13.05
2022-11-14T18:57:03.595Z,12.35
2022-11-14T18:59:53.607Z,9.82
2022-11-14T19:02:43.526Z,9.45
2022-11-14T19:05:33.632Z,8.55
2022-11-14T19:08:22.941Z,7.90
2022-11-14T19:11:30.314Z,7.53
2022-11-14T19:14:20.059Z,4.18
2022-11-14T19:17:09.935Z,5.20
2022-11-14T19:20:00.066Z,5.15
2022-11-14T19:22:49.845Z,5.57
2022-11-14T19:25:39.465Z,6.38
2022-11-14T19:28:32.547Z,7.68
2022-11-14T19:31:23.842Z,7.10
2022-11-14T19:34:13.721Z,10.98
2022-11-14T19:37:03.645Z,10.25
2022-11-14T19:39:55.695Z,10.25
2022-11-14T19:42:45.285Z,6.22
2022-11-14T19:45:40.023Z,6.03
2022-11-14T19:48:30.051Z,7.93
2022-11-14T19:51:22.607Z,4.40
2022-11-14T19:54:14.297Z,4.72
2022-11-14T19:57:03.694Z,4.68
2022-11-14T19:59:53.080Z,4.22
2022-11-14T20:02:45.063Z,4.07
2022-11-14T20:05:35.738Z,4.22
2022-11-14T20:08:25.740Z,5.03
2022-11-14T20:11:15.779Z,4.38
2022-11-14T20:14:05.856Z,3.72
2022-11-14T20:16:55.457Z,3.60
2022-11-14T20:19:48.527Z,4.90
2022-11-14T20:22:38.698Z,4.72
2022-11-14T20:25:28.156Z,4.93
2022-11-14T20:28:17.696Z,5.10
2022-11-14T20:31:09.667Z,3.67
2022-11-14T20:33:59.651Z,2.83
2022-11-14T20:40:01.146Z,3.30
2022-11-14T20:42:52.034Z,3.53
2022-11-14T20:45:41.522Z,3.80
2022-11-14T20:48:32.744Z,3.83
2022-11-14T20:51:24.713Z,2.80
2022-11-14T20:54:17.012Z,2.25
2022-11-14T20:57:06.480Z,2.65
2022-11-14T20:59:56.690Z,2.65
2022-11-14T21:02:46.117Z,3.47
2022-11-14T21:05:35.595Z,3.78
2022-11-14T21:08:24.770Z,2.88
2022-11-14T21:11:19.724Z,2.00
2022-11-14T21:14:09.403Z,2.70
2022-11-14T21:16:59.613Z,2.85
2022-11-14T21:19:49.680Z,2.00
2022-11-14T21:22:38.990Z,1.90
2022-11-14T21:25:28.435Z,2.20
2022-11-14T21:28:20.849Z,2.38
2022-11-14T21:31:22.151Z,2.00
2022-11-14T21:34:15.413Z,2.40
2022-11-14T21:37:04.678Z,2.08
2022-11-14T21:39:54.591Z,2.03
2022-11-14T21:42:43.853Z,2.30
2022-11-14T21:45:35.949Z,2.05
2022-11-14T21:48:25.561Z,2.05
2022-11-14T21:51:16.921Z,2.40
2022-11-14T21:54:07.278Z,3.25
2022-11-14T21:56:57.077Z,3.47
2022-11-14T21:59:46.963Z,3.03
2022-11-14T22:02:51.150Z,2.33
2022-11-14T22:05:40.380Z,2.28
2022-11-14T22:08:29.741Z,2.63
2022-11-14T22:11:19.230Z,2.63
2022-11-14T22:14:09.297Z,2.47
2022-11-14T22:16:58.840Z,2.05
2022-11-14T22:19:50.919Z,2.38
2022-11-14T22:22:40.433Z,2.58
2022-11-14T22:25:29.832Z,2.30
2022-11-14T22:28:18.997Z,2.83
2022-11-14T22:31:12.761Z,3.78
2022-11-14T22:34:02.386Z,2.35
2022-11-14T22:36:55.333Z,2.78
2022-11-14T22:39:44.691Z,3.67
2022-11-14T22:42:34.204Z,2.22
2022-11-14T22:45:23.549Z,2.00
2022-11-14T22:48:12.807Z,2.10
2022-11-14T22:51:04.104Z,1.80
2022-11-14T22:53:58.157Z,1.85
2022-11-14T22:56:47.687Z,1.77
2022-11-14T22:59:37.222Z,2.25
2022-11-14T23:02:26.590Z,2.10
2022-11-14T23:05:15.864Z,2.42
2022-11-14T23:08:05.425Z,2.60
2022-11-14T23:10:57.459Z,2.10
2022-11-14T23:13:48.211Z,2.80
2022-11-14T23:16:37.810Z,2.97
2022-11-14T23:19:27.038Z,2.80
2022-11-14T23:22:16.437Z,2.78
2022-11-14T23:25:05.979Z,2.58
2022-11-14T23:27:58.201Z,2.53
2022-11-14T23:30:48.680Z,2.42
2022-11-14T23:33:38.783Z,2.55
2022-11-14T23:36:29.111Z,2.42
2022-11-14T23:39:18.442Z,2.35
2022-11-14T23:42:08.291Z,2.40
2022-11-14T23:45:00.153Z,2.60
2022-11-14T23:47:49.742Z,2.28
2022-11-14T23:50:39.329Z,2.30
2022-11-14T23:53:28.776Z,2.33
2022-11-14T23:56:18.933Z,2.03
2022-11-14T23:59:09.027Z,2.15
